createdAt,value
2018-12-29T13:25:06.926Z,92.30
2018-12-29T13:27:35.653Z,92.30
2018-12-29T13:30:08.934Z,92.40
2018-12-29T13:34:38.282Z,92.20
2018-12-29T13:37:06.960Z,92.40
2018-12-29T13:39:36.186Z,92.30
2018-12-29T13:42:05.080Z,92.10
2018-12-29T13:44:36.876Z,92.10
2018-12-29T13:47:05.536Z,92.20
2018-12-29T13:49:34.240Z,92.20
2018-12-29T13:52:02.905Z,92.20
2018-12-29T13:54:31.664Z,92.20
2018-12-29T13:57:00.352Z,92.30
2018-12-29T13:59:29.049Z,92.20
2018-12-29T14:02:00.508Z,92.20
2018-12-29T14:04:29.192Z,92.10
2018-12-29T14:06:57.866Z,92.20
2018-12-29T14:09:26.541Z,92.30
2018-12-29T14:11:55.226Z,92.30
2018-12-29T14:14:24.311Z,92.30
2018-12-29T14:16:53.009Z,92.40
2018-12-29T14:19:22.181Z,92.60
2018-12-29T14:21:50.805Z,92.60
2018-12-29T14:24:19.497Z,92.50
2018-12-29T14:26:48.659Z,92.50
2018-12-29T14:29:17.333Z,92.50
2018-12-29T14:31:46.018Z,92.40
2018-12-29T14:34:14.714Z,92.20
2018-12-29T14:36:43.419Z,92.30
2018-12-29T14:39:12.127Z,92.40
2018-12-29T14:41:40.758Z,92.40
2018-12-29T14:44:09.418Z,92.40
2018-12-29T14:46:38.134Z,92.40
2018-12-29T14:49:07.035Z,92.30
2018-12-29T14:51:35.684Z,92.30
2018-12-29T14:54:04.403Z,92.30
2018-12-29T14:56:33.091Z,92.30
2018-12-29T14:59:01.790Z,92.20
2018-12-29T15:01:30.442Z,92.10
2018-12-29T15:03:59.137Z,92.00
2018-12-29T15:06:27.805Z,91.90
2018-12-29T15:08:56.483Z,91.90
2018-12-29T15:11:25.187Z,92.00
2018-12-29T15:13:53.910Z,92.00
2018-12-29T15:16:22.600Z,91.80
2018-12-29T15:18:51.320Z,91.70
2018-12-29T15:21:19.988Z,91.90
2018-12-29T15:23:48.672Z,91.80
2018-12-29T15:26:17.527Z,91.70
2018-12-29T15:28:46.284Z,91.80
2018-12-29T15:31:14.984Z,91.70
2018-12-29T15:33:43.751Z,91.80
2018-12-29T15:36:16.038Z,91.80
2018-12-29T15:38:42.773Z,91.40
2018-12-29T15:41:11.435Z,91.70
2018-12-29T15:43:40.213Z,91.70
2018-12-29T15:46:09.101Z,91.80
2018-12-29T15:48:37.755Z,91.50
2018-12-29T15:51:06.527Z,91.40
2018-12-29T15:53:36.852Z,91.40
2018-12-29T15:56:05.552Z,91.60
2018-12-29T15:58:34.274Z,91.60
2018-12-29T16:01:02.966Z,91.60
2018-12-29T16:03:34.083Z,91.60
2018-12-29T16:06:02.795Z,91.70
2018-12-29T16:08:31.452Z,91.70
2018-12-29T16:11:00.149Z,91.40
2018-12-29T16:13:28.834Z,91.40
2018-12-29T16:15:57.482Z,91.40
2018-12-29T16:18:26.546Z,91.20
2018-12-29T16:20:55.557Z,91.20
2018-12-29T16:23:26.172Z,91.10
2018-12-29T16:25:54.623Z,91.10
2018-12-29T16:28:23.313Z,91.00
2018-12-29T16:30:52.066Z,91.30
2018-12-29T16:33:20.718Z,91.20
2018-12-29T16:35:49.399Z,91.10
2018-12-29T16:38:18.143Z,91.00
2018-12-29T16:40:46.889Z,91.10
2018-12-29T16:43:16.404Z,91.00
2018-12-29T16:45:45.088Z,91.00
2018-12-29T16:48:15.566Z,91.10
2018-12-29T16:50:44.259Z,91.10
2018-12-29T16:53:12.950Z,91.00
2018-12-29T16:55:41.948Z,91.00
2018-12-29T16:58:10.612Z,90.90
2018-12-29T17:00:39.380Z,91.00
2018-12-29T17:03:08.084Z,91.00
2018-12-29T17:05:36.956Z,90.90
2018-12-29T17:08:05.641Z,90.90
2018-12-29T17:10:35.099Z,91.10
2018-12-29T17:13:05.046Z,91.00
2018-12-29T17:15:33.757Z,90.90
2018-12-29T17:18:03.051Z,91.00
2018-12-29T17:20:31.717Z,90.90
2018-12-29T17:23:00.472Z,90.90
2018-12-29T17:25:30.946Z,91.00
2018-12-29T17:28:03.836Z,91.00
2018-12-29T17:30:32.581Z,91.00
2018-12-29T17:33:02.885Z,90.90
2018-12-29T17:35:34.609Z,90.80
2018-12-29T17:38:05.030Z,90.80
2018-12-29T17:40:35.042Z,90.90
2018-12-29T17:43:03.742Z,91.10
2018-12-29T17:45:32.398Z,91.00
2018-12-29T17:48:01.147Z,91.10
2018-12-29T17:50:32.670Z,90.80
2018-12-29T17:53:01.368Z,90.80
2018-12-29T17:55:30.044Z,90.80
2018-12-29T17:57:59.816Z,90.90
2018-12-29T18:00:30.224Z,90.90
2018-12-29T18:02:59.088Z,90.80
2018-12-29T18:05:28.054Z,90.80
2018-12-29T18:07:56.771Z,90.70
2018-12-29T18:10:25.761Z,90.80
2018-12-29T18:12:55.013Z,90.70
2018-12-29T18:15:23.757Z,90.80
2018-12-29T18:18:01.086Z,90.80
2018-12-29T18:20:29.787Z,90.80
2018-12-29T18:22:58.569Z,90.90
2018-12-29T18:25:27.242Z,90.70
2018-12-29T18:27:55.929Z,90.80
2018-12-29T18:30:24.620Z,91.10
2018-12-29T18:32:53.262Z,91.20
2018-12-29T18:35:22.224Z,91.20
2018-12-29T18:37:51.033Z,91.40
2018-12-29T18:40:19.695Z,91.30
2018-12-29T18:42:49.824Z,91.40
2018-12-29T18:45:18.566Z,91.30
2018-12-29T18:47:47.250Z,91.30
2018-12-29T18:50:15.924Z,91.30
2018-12-29T18:52:44.678Z,91.50
2018-12-29T18:55:13.320Z,91.30
2018-12-29T18:57:41.987Z,91.10
2018-12-29T19:00:10.678Z,91.20
2018-12-29T19:02:39.361Z,91.20
2018-12-29T19:05:09.636Z,91.40
2018-12-29T19:07:38.386Z,91.30
2018-12-29T19:10:07.719Z,91.30
2018-12-29T19:12:36.416Z,91.30
2018-12-29T19:15:06.922Z,91.30
2018-12-29T19:17:37.516Z,91.30
2018-12-29T19:20:08.038Z,91.30
2018-12-29T19:22:36.730Z,91.10
2018-12-29T19:25:05.517Z,91.20
2018-12-29T19:27:34.201Z,91.40
2018-12-29T19:30:05.382Z,91.30
2018-12-29T19:32:36.447Z,91.30
2018-12-29T19:35:05.844Z,91.10
2018-12-29T19:37:34.769Z,91.20
2018-12-29T19:40:03.867Z,91.10
2018-12-29T19:42:33.004Z,91.10
2018-12-29T19:45:03.338Z,91.10
2018-12-29T19:47:32.260Z,91.10
2018-12-29T19:50:01.335Z,91.30
2018-12-29T19:52:30.033Z,91.30
2018-12-29T19:54:58.625Z,91.40
2018-12-29T19:57:27.501Z,91.30
2018-12-29T19:59:57.327Z,91.20
2018-12-29T20:02:26.623Z,91.20
2018-12-29T20:04:56.754Z,91.20
2018-12-29T20:07:25.573Z,91.00
2018-12-29T20:09:54.242Z,91.00
2018-12-29T20:12:22.919Z,90.90
2018-12-29T20:14:51.633Z,90.90
2018-12-29T20:17:20.301Z,90.90
2018-12-29T20:19:49.099Z,90.80
2018-12-29T20:22:17.797Z,90.90
2018-12-29T20:24:46.466Z,90.90
2018-12-29T20:27:15.144Z,90.70
2018-12-29T20:29:43.832Z,90.70
2018-12-29T20:32:12.510Z,90.80
2018-12-29T20:34:41.296Z,90.80
2018-12-29T20:37:10.013Z,90.80
2018-12-29T20:39:38.976Z,90.70
2018-12-29T20:42:07.682Z,90.70
2018-12-29T20:44:36.372Z,90.70
2018-12-29T20:47:05.099Z,90.60
2018-12-29T20:49:33.841Z,90.50
2018-12-29T20:52:02.562Z,90.70
2018-12-29T20:54:31.208Z,90.80
2018-12-29T20:56:59.880Z,90.80
2018-12-29T20:59:29.181Z,90.80
2018-12-29T21:01:57.864Z,90.60
2018-12-29T21:04:26.526Z,90.40
2018-12-29T21:06:55.205Z,90.40
2018-12-29T21:09:23.872Z,90.40
2018-12-29T21:11:52.544Z,90.50
2018-12-29T21:14:21.252Z,90.20
2018-12-29T21:16:50.105Z,90.20
2018-12-29T21:19:18.775Z,90.10
2018-12-29T21:21:47.449Z,90.30
2018-12-29T21:24:16.112Z,90.70
2018-12-29T21:26:45.338Z,90.60
2018-12-29T21:29:14.019Z,90.10
2018-12-29T21:31:42.690Z,91.80
2018-12-29T21:34:11.403Z,89.40
2018-12-29T21:36:40.137Z,90.00
2018-12-29T21:39:08.782Z,88.10
2018-12-29T21:41:37.673Z,88.20
2018-12-29T21:44:06.362Z,89.00
2018-12-29T21:46:35.018Z,90.00
2018-12-29T21:49:03.715Z,89.80
2018-12-29T21:51:32.410Z,90.10
2018-12-29T21:54:01.787Z,89.60
2018-12-29T21:56:30.456Z,89.90
2018-12-29T21:58:59.116Z,89.40
2018-12-29T22:01:27.816Z,89.20
2018-12-29T22:03:56.482Z,89.90
2018-12-29T22:06:25.506Z,89.50
2018-12-29T22:08:54.197Z,90.00
2018-12-29T22:11:22.866Z,90.00
2018-12-29T22:13:51.547Z,90.00
2018-12-29T22:16:21.564Z,89.80
2018-12-29T22:18:50.279Z,90.10
2018-12-29T22:21:21.264Z,90.10
2018-12-29T22:23:49.958Z,90.10
2018-12-29T22:26:18.639Z,90.30
2018-12-29T22:28:47.321Z,90.20
2018-12-29T22:31:16.029Z,90.00
2018-12-29T22:33:44.704Z,90.20
2018-12-29T22:36:13.654Z,90.10
2018-12-29T22:38:42.320Z,90.00
2018-12-29T22:41:11.028Z,90.00
2018-12-29T22:43:39.693Z,90.00
2018-12-29T22:46:08.386Z,90.10
2018-12-29T22:48:37.380Z,90.10
2018-12-29T22:51:06.688Z,90.10
2018-12-29T22:53:35.384Z,90.20
2018-12-29T22:56:04.062Z,90.20
2018-12-29T22:58:32.735Z,90.00
2018-12-29T23:01:02.011Z,90.20
2018-12-29T23:03:30.962Z,90.20
2018-12-29T23:05:59.684Z,90.10
2018-12-29T23:08:28.351Z,90.10
2018-12-29T23:10:57.822Z,90.10
2018-12-29T23:13:26.493Z,90.20
2018-12-29T23:15:55.160Z,90.00
2018-12-29T23:18:23.826Z,90.00
2018-12-29T23:20:52.504Z,90.00
2018-12-29T23:23:21.207Z,90.10
2018-12-29T23:25:50.263Z,90.00
2018-12-29T23:28:18.971Z,89.70
2018-12-29T23:30:47.641Z,90.00
2018-12-29T23:33:17.091Z,89.90
2018-12-29T23:35:46.040Z,89.60
2018-12-29T23:38:14.712Z,90.00
2018-12-29T23:40:43.386Z,89.80
2018-12-29T23:43:12.053Z,89.80
2018-12-29T23:45:40.916Z,90.10
2018-12-29T23:48:09.606Z,90.00
2018-12-29T23:50:38.264Z,89.90
2018-12-29T23:53:06.926Z,90.00
2018-12-29T23:55:36.200Z,90.10
2018-12-29T23:58:04.867Z,89.80
